Time,TemperatureF,DewpointF,PressureIn,WindDirection,WindDirectionDegrees,WindSpeedMPH,WindSpeedGustMPH,Humidity,HourlyPrecipIn,Conditions,Clouds,dailyrainin,SolarRadiationWatts/m^2,SoftwareType,DateUTC
2013-02-22 00:01:00,51.0,42.0,-100.00,ENE,63,2.0,13.0,71,0.00,,,0.00,0.000000,,2013-02-22 07:01:00,
2013-02-22 00:32:00,49.0,39.0,-100.00,ENE,73,6.0,10.0,68,0.00,,,0.00,0.000000,,2013-02-22 07:32:00,
2013-02-22 00:42:00,49.0,39.0,-100.00,ENE,73,6.0,10.0,68,0.00,,,0.00,0.000000,,2013-02-22 07:42:00,
2013-02-22 00:52:00,49.0,39.0,-100.00,ENE,73,6.0,10.0,68,0.00,,,0.00,0.000000,,2013-02-22 07:52:00,
2013-02-22 01:01:00,49.0,39.0,-100.00,ENE,73,6.0,10.0,68,0.00,,,0.00,0.000000,,2013-02-22 08:01:00,
2013-02-22 01:32:00,51.0,43.0,-100.00,South,191,0.0,9.0,75,0.00,,,0.00,0.000000,,2013-02-22 08:32:00,
2013-02-22 01:42:00,51.0,43.0,-100.00,South,191,0.0,9.0,75,0.00,,,0.00,0.000000,,2013-02-22 08:42:00,
2013-02-22 01:52:00,51.0,43.0,-100.00,South,191,0.0,9.0,75,0.00,,,0.00,0.000000,,2013-02-22 08:52:00,
2013-02-22 02:03:00,51.0,43.0,-100.00,South,191,0.0,9.0,75,0.00,,,0.00,0.000000,,2013-02-22 09:03:00,
2013-02-22 02:32:00,46.0,41.0,-100.00,East,99,0.0,6.0,82,0.00,,,0.00,0.000000,,2013-02-22 09:32:00,
2013-02-22 02:42:00,46.0,41.0,-100.00,East,99,0.0,6.0,82,0.00,,,0.00,0.000000,,2013-02-22 09:42:00,
2013-02-22 02:52:00,46.0,41.0,-100.00,East,99,0.0,6.0,82,0.00,,,0.00,0.000000,,2013-02-22 09:52:00,
2013-02-22 03:01:00,46.0,41.0,-100.00,East,99,0.0,6.0,82,0.00,,,0.00,0.000000,,2013-02-22 10:01:00,
2013-02-22 03:32:00,44.0,40.0,-100.00,NE,50,2.0,4.0,86,0.00,,,0.00,0.000000,,2013-02-22 10:32:00,
2013-02-22 03:42:00,44.0,40.0,-100.00,NE,50,2.0,4.0,86,0.00,,,0.00,0.000000,,2013-02-22 10:42:00,
2013-02-22 03:52:00,44.0,40.0,-100.00,NE,50,2.0,4.0,86,0.00,,,0.00,0.000000,,2013-02-22 10:52:00,
2013-02-22 04:01:00,44.0,40.0,-100.00,NE,50,2.0,4.0,86,0.00,,,0.00,0.000000,,2013-02-22 11:01:00,
2013-02-22 04:32:00,41.0,38.0,-100.00,ESE,102,0.0,4.0,89,0.00,,,0.00,0.000000,,2013-02-22 11:32:00,
2013-02-22 04:42:00,41.0,38.0,-100.00,ESE,102,0.0,4.0,89,0.00,,,0.00,0.000000,,2013-02-22 11:42:00,
2013-02-22 04:52:00,41.0,38.0,-100.00,ESE,102,0.0,4.0,89,0.00,,,0.00,0.000000,,2013-02-22 11:52:00,
2013-02-22 05:02:00,41.0,38.0,-100.00,ESE,102,0.0,4.0,89,0.00,,,0.00,0.000000,,2013-02-22 12:02:00,
2013-02-22 05:32:00,40.0,38.0,-100.00,ENE,77,0.0,3.0,92,0.00,,,0.00,0.000000,,2013-02-22 12:32:00,
2013-02-22 05:42:00,40.0,38.0,-100.00,ENE,77,0.0,3.0,92,0.00,,,0.00,0.000000,,2013-02-22 12:42:00,
2013-02-22 05:52:00,40.0,38.0,-100.00,ENE,77,0.0,3.0,92,0.00,,,0.00,0.000000,,2013-02-22 12:52:00,
2013-02-22 06:01:00,40.0,38.0,-100.00,ENE,77,0.0,3.0,92,0.00,,,0.00,0.000000,,2013-02-22 13:01:00,
2013-02-22 06:42:00,40.0,38.0,-100.00,East,81,0.0,1.0,91,0.00,,,-99.99,0.000000,,2013-02-22 13:42:00,
2013-02-22 06:52:00,40.0,38.0,-100.00,East,81,0.0,1.0,91,0.00,,,-99.99,0.000000,,2013-02-22 13:52:00,
2013-02-22 07:01:00,40.0,38.0,-100.00,East,81,0.0,1.0,91,0.00,,,-99.99,0.000000,,2013-02-22 14:01:00,
2013-02-22 07:32:00,38.0,36.0,-100.00,ENE,71,0.0,3.0,91,0.00,,,0.00,0.000000,,2013-02-22 14:32:00,
2013-02-22 07:42:00,38.0,36.0,-100.00,ENE,71,0.0,3.0,91,0.00,,,0.00,0.000000,,2013-02-22 14:42:00,
2013-02-22 07:53:00,38.0,36.0,-100.00,ENE,71,0.0,3.0,91,0.00,,,0.00,0.000000,,2013-02-22 14:53:00,
2013-02-22 08:01:00,38.0,36.0,-100.00,ENE,71,0.0,3.0,91,0.00,,,0.00,0.000000,,2013-02-22 15:01:00,
2013-02-22 08:32:00,40.0,33.0,-100.00,SE,127,0.0,3.0,76,0.00,,,0.00,0.000000,,2013-02-22 15:32:00,
2013-02-22 08:42:00,40.0,33.0,-100.00,SE,127,0.0,3.0,76,0.00,,,0.00,0.000000,,2013-02-22 15:42:00,
2013-02-22 08:52:00,40.0,33.0,-100.00,SE,127,0.0,3.0,76,0.00,,,0.00,0.000000,,2013-02-22 15:52:00,
2013-02-22 09:01:00,40.0,33.0,-100.00,SE,127,0.0,3.0,76,0.00,,,0.00,0.000000,,2013-02-22 16:01:00,
2013-02-22 09:32:00,45.0,25.0,-100.00,SSE,166,0.0,2.0,45,0.00,,,0.00,72.000000,,2013-02-22 16:32:00,
2013-02-22 09:42:00,45.0,25.0,-100.00,SSE,166,0.0,2.0,45,0.00,,,0.00,72.000000,,2013-02-22 16:42:00,
2013-02-22 09:52:00,45.0,25.0,-100.00,SSE,166,0.0,2.0,45,0.00,,,0.00,72.000000,,2013-02-22 16:52:00,
2013-02-22 10:01:00,45.0,25.0,-100.00,SSE,166,0.0,2.0,45,0.00,,,0.00,72.000000,,2013-02-22 17:01:00,
2013-02-22 10:42:00,57.0,34.0,-100.00,NNW,335,2.0,4.0,41,-99.99,,,0.00,322.000000,,2013-02-22 17:42:00,
2013-02-22 10:52:00,57.0,34.0,-100.00,NNW,335,2.0,4.0,41,-99.99,,,0.00,322.000000,,2013-02-22 17:52:00,
2013-02-22 11:01:00,57.0,34.0,-100.00,NNW,335,2.0,4.0,41,-99.99,,,0.00,322.000000,,2013-02-22 18:01:00,
2013-02-22 11:32:00,61.0,28.0,-100.00,NW,305,4.0,5.0,28,0.00,,,-99.99,573.000000,,2013-02-22 18:32:00,
2013-02-22 11:42:00,61.0,28.0,-100.00,NW,305,4.0,5.0,28,0.00,,,-99.99,573.000000,,2013-02-22 18:42:00,
2013-02-22 11:52:00,61.0,28.0,-100.00,NW,305,4.0,5.0,28,0.00,,,-99.99,573.000000,,2013-02-22 18:52:00,
2013-02-22 12:01:00,61.0,28.0,-100.00,NW,305,4.0,5.0,28,0.00,,,-99.99,573.000000,,2013-02-22 19:01:00,
2013-02-22 12:31:00,64.0,21.0,-100.00,NW,319,5.0,8.0,19,0.00,,,0.00,705.000000,,2013-02-22 19:31:00,
2013-02-22 12:42:00,64.0,21.0,-100.00,NW,319,5.0,8.0,19,0.00,,,0.00,705.000000,,2013-02-22 19:42:00,
2013-02-22 12:52:00,64.0,21.0,-100.00,NW,319,5.0,8.0,19,0.00,,,0.00,705.000000,,2013-02-22 19:52:00,
2013-02-22 13:01:00,64.0,21.0,-100.00,NW,319,5.0,8.0,19,0.00,,,0.00,705.000000,,2013-02-22 20:01:00,
2013-02-22 13:42:00,67.0,16.0,-100.00,North,8,4.0,11.0,14,0.00,,,0.00,890.000000,,2013-02-22 20:42:00,
2013-02-22 13:52:00,67.0,16.0,-100.00,North,8,4.0,11.0,14,0.00,,,0.00,890.000000,,2013-02-22 20:52:00,
2013-02-22 14:01:00,67.0,16.0,-100.00,North,8,4.0,11.0,14,0.00,,,0.00,890.000000,,2013-02-22 21:01:00,
2013-02-22 14:42:00,66.0,14.0,-100.00,SSW,195,5.0,11.0,13,0.00,,,0.00,991.000000,,2013-02-22 21:42:00,
2013-02-22 14:52:00,66.0,14.0,-100.00,SSW,195,5.0,11.0,13,0.00,,,0.00,991.000000,,2013-02-22 21:52:00,
2013-02-22 15:01:00,66.0,14.0,-100.00,SSW,195,5.0,11.0,13,0.00,,,0.00,991.000000,,2013-02-22 22:01:00,
2013-02-22 15:32:00,70.0,13.0,-100.00,NE,45,4.0,11.0,11,0.00,,,0.00,973.000000,,2013-02-22 22:32:00,
2013-02-22 15:42:00,70.0,13.0,-100.00,NE,45,4.0,11.0,11,0.00,,,0.00,973.000000,,2013-02-22 22:42:00,
2013-02-22 15:52:00,70.0,13.0,-100.00,NE,45,4.0,11.0,11,0.00,,,0.00,973.000000,,2013-02-22 22:52:00,
2013-02-22 16:01:00,70.0,13.0,-100.00,NE,45,4.0,11.0,11,0.00,,,0.00,973.000000,,2013-02-22 23:01:00,
2013-02-22 16:42:00,69.0,10.0,-100.00,WSW,237,7.0,12.0,10,0.00,,,0.00,866.000000,,2013-02-22 23:42:00,
2013-02-22 16:52:00,69.0,10.0,-100.00,WSW,237,7.0,12.0,10,0.00,,,0.00,866.000000,,2013-02-22 23:52:00,
2013-02-22 17:01:00,69.0,10.0,-100.00,WSW,237,7.0,12.0,10,0.00,,,0.00,866.000000,,2013-02-23 00:01:00,
2013-02-22 17:32:00,68.0,9.0,-100.00,North,351,6.0,15.0,10,0.00,,,0.00,694.000000,,2013-02-23 00:32:00,
2013-02-22 17:42:00,68.0,9.0,-100.00,North,351,6.0,15.0,10,0.00,,,0.00,694.000000,,2013-02-23 00:42:00,
2013-02-22 17:52:00,68.0,9.0,-100.00,North,351,6.0,15.0,10,0.00,,,0.00,694.000000,,2013-02-23 00:52:00,
2013-02-22 18:01:00,68.0,9.0,-100.00,North,351,6.0,15.0,10,0.00,,,0.00,694.000000,,2013-02-23 01:01:00,
2013-02-22 18:32:00,68.0,12.0,-100.00,North,351,3.0,12.0,11,0.00,,,0.00,460.000000,,2013-02-23 01:32:00,
2013-02-22 18:42:00,68.0,12.0,-100.00,North,351,3.0,12.0,11,0.00,,,0.00,460.000000,,2013-02-23 01:42:00,
2013-02-22 18:52:00,68.0,12.0,-100.00,North,351,3.0,12.0,11,0.00,,,0.00,460.000000,,2013-02-23 01:52:00,
2013-02-22 19:01:00,68.0,12.0,-100.00,North,351,3.0,12.0,11,0.00,,,0.00,460.000000,,2013-02-23 02:01:00,
2013-02-22 19:32:00,67.0,16.0,-100.00,WSW,251,2.0,9.0,14,0.00,,,0.00,199.000000,,2013-02-23 02:32:00,
2013-02-22 19:42:00,67.0,16.0,-100.00,WSW,251,2.0,9.0,14,0.00,,,0.00,199.000000,,2013-02-23 02:42:00,
2013-02-22 19:52:00,67.0,16.0,-100.00,WSW,251,2.0,9.0,14,0.00,,,0.00,199.000000,,2013-02-23 02:52:00,
2013-02-22 20:01:00,67.0,16.0,-100.00,WSW,251,2.0,9.0,14,0.00,,,0.00,199.000000,,2013-02-23 03:01:00,
2013-02-22 20:32:00,60.0,22.0,-100.00,ESE,115,0.0,4.0,23,-99.99,,,0.00,11.000000,,2013-02-23 03:32:00,
2013-02-22 20:42:00,60.0,22.0,-100.00,ESE,115,0.0,4.0,23,-99.99,,,0.00,11.000000,,2013-02-23 03:42:00,
2013-02-22 20:52:00,60.0,22.0,-100.00,ESE,115,0.0,4.0,23,-99.99,,,0.00,11.000000,,2013-02-23 03:52:00,
2013-02-22 21:01:00,60.0,22.0,-100.00,ESE,115,0.0,4.0,23,-99.99,,,0.00,11.000000,,2013-02-23 04:01:00,
2013-02-22 21:32:00,55.0,24.0,-100.00,East,81,0.0,5.0,30,0.00,,,0.00,0.000000,,2013-02-23 04:32:00,
2013-02-22 21:42:00,55.0,24.0,-100.00,East,81,0.0,5.0,30,0.00,,,0.00,0.000000,,2013-02-23 04:42:00,
2013-02-22 21:52:00,55.0,24.0,-100.00,East,81,0.0,5.0,30,0.00,,,0.00,0.000000,,2013-02-23 04:52:00,
2013-02-22 22:01:00,55.0,24.0,-100.00,East,81,0.0,5.0,30,0.00,,,0.00,0.000000,,2013-02-23 05:01:00,
2013-02-22 22:42:00,52.0,26.0,-100.00,ESE,105,0.0,3.0,36,0.00,,,0.00,0.000000,,2013-02-23 05:42:00,
2013-02-22 22:52:00,52.0,26.0,-100.00,ESE,105,0.0,3.0,36,0.00,,,0.00,0.000000,,2013-02-23 05:52:00,
2013-02-22 23:01:00,52.0,26.0,-100.00,ESE,105,0.0,3.0,36,0.00,,,0.00,0.000000,,2013-02-23 06:01:00,
2013-02-22 23:32:00,49.0,23.0,-100.00,ESE,109,0.0,2.0,35,0.00,,,0.00,0.000000,,2013-02-23 06:32:00,
2013-02-22 23:42:00,49.0,23.0,-100.00,ESE,109,0.0,2.0,35,0.00,,,0.00,0.000000,,2013-02-23 06:42:00,
2013-02-22 23:52:00,49.0,23.0,-100.00,ESE,109,0.0,2.0,35,0.00,,,0.00,0.000000,,2013-02-23 06:52:00,